sensor_id;sensor_type;location;lat;lon;timestamp;pressure;altitude;pressure_sealevel;temperature;humidity
10462;BME280;5278;42.656;23.374;2023-02-28T00:00:14;95062.91;;;18.34;51.76
10462;BME280;5278;42.656;23.374;2023-02-28T00:02:42;94978.44;;;17.21;51.51
10462;BME280;5278;42.656;23.374;2023-02-28T00:05:14;95072.84;;;16.16;56.79
10462;BME280;5278;42.656;23.374;2023-02-28T00:07:41;95076.97;;;14.88;61.47
10462;BME280;5278;42.656;23.374;2023-02-28T00:10:10;95091.78;;;14.02;65.31
10462;BME280;5278;42.656;23.374;2023-02-28T00:12:39;95075.41;;;13.28;71.12
10462;BME280;5278;42.656;23.374;2023-02-28T00:15:08;95079.53;;;12.25;76.02
10462;BME280;5278;42.656;23.374;2023-02-28T00:17:35;95094.28;;;11.79;79.52
10462;BME280;5278;42.656;23.374;2023-02-28T00:20:03;95098.94;;;11.45;82.34
10462;BME280;5278;42.656;23.374;2023-02-28T00:22:40;95094.78;;;11.11;84.95
10462;BME280;5278;42.656;23.374;2023-02-28T00:25:09;95094.84;;;10.71;87.36
10462;BME280;5278;42.656;23.374;2023-02-28T00:27:37;95107.81;;;10.47;88.33
10462;BME280;5278;42.656;23.374;2023-02-28T00:30:10;95094.19;;;10.20;90.83
10462;BME280;5278;42.656;23.374;2023-02-28T00:32:38;95096.50;;;9.81;93.32
10462;BME280;5278;42.656;23.374;2023-02-28T00:35:06;95113.47;;;9.68;94.90
10462;BME280;5278;42.656;23.374;2023-02-28T00:37:34;95097.63;;;9.71;96.12
10462;BME280;5278;42.656;23.374;2023-02-28T00:40:02;95065.06;;;9.34;96.87
10462;BME280;5278;42.656;23.374;2023-02-28T00:42:30;95105.97;;;9.57;96.76
10462;BME280;5278;42.656;23.374;2023-02-28T00:44:57;94973.78;;;8.81;97.20
10462;BME280;5278;42.656;23.374;2023-02-28T00:47:27;95088.28;;;9.52;97.80
10462;BME280;5278;42.656;23.374;2023-02-28T00:49:53;95088.13;;;9.54;98.49
10462;BME280;5278;42.656;23.374;2023-02-28T00:52:20;95088.63;;;9.57;98.63
10462;BME280;5278;42.656;23.374;2023-02-28T00:54:48;95088.47;;;9.50;98.46
10462;BME280;5278;42.656;23.374;2023-02-28T00:57:14;95075.28;;;9.36;98.22
10462;BME280;5278;42.656;23.374;2023-02-28T00:59:41;95099.56;;;9.35;99.12
10462;BME280;5278;42.656;23.374;2023-02-28T01:02:08;95101.34;;;9.34;99.33
10462;BME280;5278;42.656;23.374;2023-02-28T01:04:37;95106.84;;;9.31;99.43
10462;BME280;5278;42.656;23.374;2023-02-28T01:07:04;95111.06;;;9.32;99.67
10462;BME280;5278;42.656;23.374;2023-02-28T01:09:32;95084.44;;;9.22;99.69
10462;BME280;5278;42.656;23.374;2023-02-28T01:11:59;95087.38;;;9.27;99.29
10462;BME280;5278;42.656;23.374;2023-02-28T01:14:26;95093.91;;;9.39;99.17
10462;BME280;5278;42.656;23.374;2023-02-28T01:16:54;95083.88;;;9.36;98.72
10462;BME280;5278;42.656;23.374;2023-02-28T01:19:22;95088.41;;;9.42;98.95
10462;BME280;5278;42.656;23.374;2023-02-28T01:21:51;95052.69;;;9.20;98.75
10462;BME280;5278;42.656;23.374;2023-02-28T01:24:21;95086.13;;;9.39;98.82
10462;BME280;5278;42.656;23.374;2023-02-28T01:26:48;95086.97;;;9.40;98.25
10462;BME280;5278;42.656;23.374;2023-02-28T01:29:15;95072.16;;;9.32;98.41
10462;BME280;5278;42.656;23.374;2023-02-28T01:31:42;95084.50;;;9.38;98.12
10462;BME280;5278;42.656;23.374;2023-02-28T01:34:09;95074.63;;;9.42;98.45
10462;BME280;5278;42.656;23.374;2023-02-28T01:36:39;95084.72;;;9.45;98.10
10462;BME280;5278;42.656;23.374;2023-02-28T01:39:07;95078.03;;;9.42;97.87
10462;BME280;5278;42.656;23.374;2023-02-28T01:41:34;95089.72;;;9.46;98.03
10462;BME280;5278;42.656;23.374;2023-02-28T01:44:04;95093.31;;;9.45;98.17
10462;BME280;5278;42.656;23.374;2023-02-28T01:46:33;95104.28;;;9.39;97.36
10462;BME280;5278;42.656;23.374;2023-02-28T01:49:05;95097.78;;;9.35;97.84
10462;BME280;5278;42.656;23.374;2023-02-28T01:51:37;95097.94;;;9.34;98.20
10462;BME280;5278;42.656;23.374;2023-02-28T01:54:10;95079.09;;;9.24;97.81
10462;BME280;5278;42.656;23.374;2023-02-28T01:56:41;95099.03;;;9.23;97.85
10462;BME280;5278;42.656;23.374;2023-02-28T01:59:14;95094.66;;;9.24;97.97
10462;BME280;5278;42.656;23.374;2023-02-28T02:01:44;95089.47;;;9.24;98.09
10462;BME280;5278;42.656;23.374;2023-02-28T02:04:11;95088.34;;;9.26;98.71
10462;BME280;5278;42.656;23.374;2023-02-28T02:06:44;95093.19;;;9.21;97.99
10462;BME280;5278;42.656;23.374;2023-02-28T02:09:13;95092.84;;;9.16;98.54
10462;BME280;5278;42.656;23.374;2023-02-28T02:11:42;95100.63;;;9.16;98.29
10462;BME280;5278;42.656;23.374;2023-02-28T02:17:14;95091.47;;;9.04;99.87
10462;BME280;5278;42.656;23.374;2023-02-28T02:20:16;95046.78;;;8.76;100.00
10462;BME280;5278;42.656;23.374;2023-02-28T02:23:06;95090.78;;;9.02;100.00
10462;BME280;5278;42.656;23.374;2023-02-28T02:25:44;95088.19;;;9.02;100.00
10462;BME280;5278;42.656;23.374;2023-02-28T02:28:41;95086.31;;;9.12;100.00
10462;BME280;5278;42.656;23.374;2023-02-28T02:31:39;95090.41;;;9.15;100.00
10462;BME280;5278;42.656;23.374;2023-02-28T02:34:27;95093.44;;;9.10;100.00
10462;BME280;5278;42.656;23.374;2023-02-28T02:37:03;95091.50;;;9.12;100.00
10462;BME280;5278;42.656;23.374;2023-02-28T02:39:38;95093.94;;;9.14;100.00
10462;BME280;5278;42.656;23.374;2023-02-28T02:42:13;95081.44;;;9.09;100.00
10462;BME280;5278;42.656;23.374;2023-02-28T02:44:47;95093.13;;;9.13;100.00
10462;BME280;5278;42.656;23.374;2023-02-28T02:47:19;95082.72;;;9.05;100.00
10462;BME280;5278;42.656;23.374;2023-02-28T02:49:55;95107.25;;;9.19;100.00
10462;BME280;5278;42.656;23.374;2023-02-28T02:52:30;95102.06;;;9.19;100.00
10462;BME280;5278;42.656;23.374;2023-02-28T02:55:00;95094.78;;;9.22;100.00
10462;BME280;5278;42.656;23.374;2023-02-28T02:57:32;95102.06;;;9.19;100.00
10462;BME280;5278;42.656;23.374;2023-02-28T03:00:03;95108.41;;;9.16;100.00
10462;BME280;5278;42.656;23.374;2023-02-28T03:02:34;95116.47;;;9.13;100.00
10462;BME280;5278;42.656;23.374;2023-02-28T03:05:06;95126.69;;;9.15;100.00
10462;BME280;5278;42.656;23.374;2023-02-28T03:07:35;95106.75;;;9.15;100.00
10462;BME280;5278;42.656;23.374;2023-02-28T03:10:02;95131.44;;;9.27;100.00
10462;BME280;5278;42.656;23.374;2023-02-28T03:12:40;95131.97;;;9.31;100.00
10462;BME280;5278;42.656;23.374;2023-02-28T03:15:11;95131.03;;;9.40;100.00
10462;BME280;5278;42.656;23.374;2023-02-28T03:17:53;95136.03;;;9.41;100.00
10462;BME280;5278;42.656;23.374;2023-02-28T03:20:35;95146.94;;;9.45;98.82
10462;BME280;5278;42.656;23.374;2023-02-28T03:23:13;95146.13;;;9.44;98.92
10462;BME280;5278;42.656;23.374;2023-02-28T03:25:53;95144.97;;;9.39;98.02
10462;BME280;5278;42.656;23.374;2023-02-28T03:28:31;95138.25;;;9.28;98.38
10462;BME280;5278;42.656;23.374;2023-02-28T03:31:03;95148.94;;;9.25;97.64
10462;BME280;5278;42.656;23.374;2023-02-28T03:33:38;95158.06;;;9.12;98.06
10462;BME280;5278;42.656;23.374;2023-02-28T03:36:12;95156.75;;;9.07;99.45
10462;BME280;5278;42.656;23.374;2023-02-28T03:38:44;95159.44;;;8.98;100.00
10462;BME280;5278;42.656;23.374;2023-02-28T03:41:14;95155.91;;;8.99;100.00
10462;BME280;5278;42.656;23.374;2023-02-28T03:43:48;95144.84;;;8.97;100.00
10462;BME280;5278;42.656;23.374;2023-02-28T03:46:19;95150.66;;;8.91;100.00
10462;BME280;5278;42.656;23.374;2023-02-28T03:48:53;95139.41;;;8.82;100.00
10462;BME280;5278;42.656;23.374;2023-02-28T03:51:27;95147.72;;;8.86;100.00
10462;BME280;5278;42.656;23.374;2023-02-28T03:53:58;95152.53;;;8.81;100.00
10462;BME280;5278;42.656;23.374;2023-02-28T03:56:31;95160.91;;;8.75;100.00
10462;BME280;5278;42.656;23.374;2023-02-28T03:59:02;95174.06;;;8.63;100.00
10462;BME280;5278;42.656;23.374;2023-02-28T04:01:35;95166.63;;;8.60;100.00
10462;BME280;5278;42.656;23.374;2023-02-28T04:04:03;95154.78;;;8.40;100.00
10462;BME280;5278;42.656;23.374;2023-02-28T04:06:33;95181.69;;;8.47;100.00
10462;BME280;5278;42.656;23.374;2023-02-28T04:09:01;95168.75;;;8.47;100.00
10462;BME280;5278;42.656;23.374;2023-02-28T04:11:33;95173.34;;;8.53;100.00
10462;BME280;5278;42.656;23.374;2023-02-28T04:14:01;95140.25;;;8.47;100.00
10462;BME280;5278;42.656;23.374;2023-02-28T04:16:30;95134.72;;;8.42;100.00
10462;BME280;5278;42.656;23.374;2023-02-28T04:18:57;95148.91;;;8.38;100.00
10462;BME280;5278;42.656;23.374;2023-02-28T04:21:27;95136.66;;;8.40;100.00
10462;BME280;5278;42.656;23.374;2023-02-28T04:23:57;95160.09;;;8.56;100.00
10462;BME280;5278;42.656;23.374;2023-02-28T04:26:28;95163.66;;;8.55;100.00
10462;BME280;5278;42.656;23.374;2023-02-28T04:28:56;95160.59;;;8.42;100.00
10462;BME280;5278;42.656;23.374;2023-02-28T04:31:23;95153.16;;;8.39;100.00
10462;BME280;5278;42.656;23.374;2023-02-28T04:33:50;95169.63;;;8.38;100.00
10462;BME280;5278;42.656;23.374;2023-02-28T04:36:17;95158.63;;;8.36;100.00
10462;BME280;5278;42.656;23.374;2023-02-28T04:38:45;95173.72;;;8.41;100.00
10462;BME280;5278;42.656;23.374;2023-02-28T04:41:16;95170.38;;;8.31;100.00
10462;BME280;5278;42.656;23.374;2023-02-28T04:43:43;95173.78;;;8.31;100.00
10462;BME280;5278;42.656;23.374;2023-02-28T04:46:12;95181.56;;;8.31;100.00
10462;BME280;5278;42.656;23.374;2023-02-28T04:48:44;95189.69;;;8.36;100.00
10462;BME280;5278;42.656;23.374;2023-02-28T04:51:13;95190.56;;;8.45;100.00
10462;BME280;5278;42.656;23.374;2023-02-28T04:53:41;95191.66;;;8.42;100.00
10462;BME280;5278;42.656;23.374;2023-02-28T04:56:10;95180.28;;;8.35;100.00
10462;BME280;5278;42.656;23.374;2023-02-28T04:58:39;95182.94;;;8.43;100.00
10462;BME280;5278;42.656;23.374;2023-02-28T05:01:15;95178.06;;;8.40;100.00
10462;BME280;5278;42.656;23.374;2023-02-28T05:03:43;95187.25;;;8.35;100.00
10462;BME280;5278;42.656;23.374;2023-02-28T05:06:11;95167.44;;;8.16;100.00
10462;BME280;5278;42.656;23.374;2023-02-28T05:08:40;95187.94;;;8.27;100.00
10462;BME280;5278;42.656;23.374;2023-02-28T05:11:17;95193.91;;;8.28;100.00
10462;BME280;5278;42.656;23.374;2023-02-28T05:13:46;95192.44;;;8.25;100.00
10462;BME280;5278;42.656;23.374;2023-02-28T05:16:14;95178.19;;;8.21;100.00
10462;BME280;5278;42.656;23.374;2023-02-28T05:18:41;95159.31;;;8.11;100.00
10462;BME280;5278;42.656;23.374;2023-02-28T05:21:27;95203.97;;;8.40;100.00
10462;BME280;5278;42.656;23.374;2023-02-28T05:23:56;95203.97;;;8.40;100.00
10462;BME280;5278;42.656;23.374;2023-02-28T05:26:24;95202.78;;;8.35;100.00
10462;BME280;5278;42.656;23.374;2023-02-28T05:28:53;95209.63;;;8.26;100.00
10462;BME280;5278;42.656;23.374;2023-02-28T05:31:20;95210.03;;;8.31;100.00
10462;BME280;5278;42.656;23.374;2023-02-28T05:33:47;95213.25;;;8.33;100.00
10462;BME280;5278;42.656;23.374;2023-02-28T05:36:16;95192.44;;;8.25;100.00
10462;BME280;5278;42.656;23.374;2023-02-28T05:38:46;95167.81;;;8.21;100.00
10462;BME280;5278;42.656;23.374;2023-02-28T05:41:13;95221.13;;;8.59;100.00
10462;BME280;5278;42.656;23.374;2023-02-28T05:43:40;95222.00;;;8.68;100.00
10462;BME280;5278;42.656;23.374;2023-02-28T05:46:10;95229.19;;;8.74;100.00
10462;BME280;5278;42.656;23.374;2023-02-28T05:48:38;95228.91;;;8.77;100.00
10462;BME280;5278;42.656;23.374;2023-02-28T05:51:06;95227.28;;;8.76;100.00
10462;BME280;5278;42.656;23.374;2023-02-28T05:53:33;95220.91;;;8.70;100.00
10462;BME280;5278;42.656;23.374;2023-02-28T05:56:01;95238.31;;;8.78;100.00
10462;BME280;5278;42.656;23.374;2023-02-28T05:58:28;95248.66;;;8.78;100.00
10462;BME280;5278;42.656;23.374;2023-02-28T06:00:57;95226.25;;;8.69;100.00
10462;BME280;5278;42.656;23.374;2023-02-28T06:03:26;95211.66;;;8.50;100.00
10462;BME280;5278;42.656;23.374;2023-02-28T06:05:53;95227.44;;;8.74;100.00
10462;BME280;5278;42.656;23.374;2023-02-28T06:08:20;95238.16;;;8.79;100.00
10462;BME280;5278;42.656;23.374;2023-02-28T06:10:47;95014.63;;;7.64;100.00
10462;BME280;5278;42.656;23.374;2023-02-28T06:13:14;95122.94;;;8.48;100.00
10462;BME280;5278;42.656;23.374;2023-02-28T06:15:41;95217.75;;;9.20;100.00
10462;BME280;5278;42.656;23.374;2023-02-28T06:18:08;95221.53;;;9.25;100.00
10462;BME280;5278;42.656;23.374;2023-02-28T06:20:37;95219.31;;;9.30;100.00
10462;BME280;5278;42.656;23.374;2023-02-28T06:23:04;95222.91;;;9.37;100.00
10462;BME280;5278;42.656;23.374;2023-02-28T06:25:31;95175.47;;;9.19;100.00
10462;BME280;5278;42.656;23.374;2023-02-28T06:27:57;95224.63;;;9.55;99.95
10462;BME280;5278;42.656;23.374;2023-02-28T06:30:24;95205.81;;;9.52;100.00
10462;BME280;5278;42.656;23.374;2023-02-28T06:32:53;95229.25;;;9.69;98.75
10462;BME280;5278;42.656;23.374;2023-02-28T06:35:22;95227.22;;;9.55;97.56
10462;BME280;5278;42.656;23.374;2023-02-28T06:37:50;95233.03;;;9.48;98.01
10462;BME280;5278;42.656;23.374;2023-02-28T06:40:17;95237.41;;;9.48;98.35
10462;BME280;5278;42.656;23.374;2023-02-28T06:42:45;95225.72;;;9.44;97.98
10462;BME280;5278;42.656;23.374;2023-02-28T06:45:12;95241.16;;;9.54;98.87
10462;BME280;5278;42.656;23.374;2023-02-28T06:47:40;95243.44;;;9.57;98.87
10462;BME280;5278;42.656;23.374;2023-02-28T06:50:09;95253.75;;;9.66;98.57
10462;BME280;5278;42.656;23.374;2023-02-28T06:52:39;95196.31;;;9.35;97.10
10462;BME280;5278;42.656;23.374;2023-02-28T06:55:09;95245.50;;;9.71;97.38
10462;BME280;5278;42.656;23.374;2023-02-28T06:57:36;95244.94;;;9.59;97.35
10462;BME280;5278;42.656;23.374;2023-02-28T07:00:05;95252.56;;;9.61;96.78
10462;BME280;5278;42.656;23.374;2023-02-28T07:02:34;95251.94;;;9.67;97.08
10462;BME280;5278;42.656;23.374;2023-02-28T07:05:03;95248.22;;;9.69;96.32
10462;BME280;5278;42.656;23.374;2023-02-28T07:07:30;95249.06;;;9.70;96.94
10462;BME280;5278;42.656;23.374;2023-02-28T07:09:57;95224.69;;;9.63;96.78
10462;BME280;5278;42.656;23.374;2023-02-28T07:12:26;95240.38;;;9.87;96.45
10462;BME280;5278;42.656;23.374;2023-02-28T07:14:53;95255.19;;;9.94;95.58
10462;BME280;5278;42.656;23.374;2023-02-28T07:17:21;95197.09;;;9.62;95.24
10462;BME280;5278;42.656;23.374;2023-02-28T07:19:47;95247.19;;;9.88;94.97
10462;BME280;5278;42.656;23.374;2023-02-28T07:22:15;95239.06;;;9.83;95.07
10462;BME280;5278;42.656;23.374;2023-02-28T07:24:42;95245.06;;;9.83;95.26
10462;BME280;5278;42.656;23.374;2023-02-28T07:27:09;95234.81;;;9.82;95.63
10462;BME280;5278;42.656;23.374;2023-02-28T07:29:39;95246.91;;;9.91;96.39
10462;BME280;5278;42.656;23.374;2023-02-28T07:32:06;95251.97;;;10.01;96.38
10462;BME280;5278;42.656;23.374;2023-02-28T07:34:34;95243.75;;;10.13;95.87
10462;BME280;5278;42.656;23.374;2023-02-28T07:37:00;95245.78;;;10.27;95.67
10462;BME280;5278;42.656;23.374;2023-02-28T07:39:29;95242.28;;;10.53;95.08
10462;BME280;5278;42.656;23.374;2023-02-28T07:41:56;95216.97;;;10.71;93.62
10462;BME280;5278;42.656;23.374;2023-02-28T07:44:25;95244.00;;;10.94;92.32
10462;BME280;5278;42.656;23.374;2023-02-28T07:46:54;95243.34;;;11.25;92.37
10462;BME280;5278;42.656;23.374;2023-02-28T07:49:21;95239.06;;;11.56;91.22
10462;BME280;5278;42.656;23.374;2023-02-28T07:51:48;95235.16;;;11.76;89.43
10462;BME280;5278;42.656;23.374;2023-02-28T07:54:15;95237.78;;;11.84;88.87
10462;BME280;5278;42.656;23.374;2023-02-28T07:56:42;95229.50;;;11.73;88.33
10462;BME280;5278;42.656;23.374;2023-02-28T07:59:09;95227.25;;;12.78;98.25
10462;BME280;5278;42.656;23.374;2023-02-28T08:01:37;95213.03;;;14.52;86.21
10462;BME280;5278;42.656;23.374;2023-02-28T08:04:06;95226.56;;;15.89;75.41
10462;BME280;5278;42.656;23.374;2023-02-28T08:06:32;95214.00;;;17.08;67.83
10462;BME280;5278;42.656;23.374;2023-02-28T08:08:59;95216.44;;;17.55;63.40
10462;BME280;5278;42.656;23.374;2023-02-28T08:11:28;95225.03;;;16.84;63.23
10462;BME280;5278;42.656;23.374;2023-02-28T08:13:55;95228.94;;;16.12;66.98
10462;BME280;5278;42.656;23.374;2023-02-28T08:16:21;95230.69;;;15.71;69.10
10462;BME280;5278;42.656;23.374;2023-02-28T08:18:49;95223.97;;;15.40;71.52
10462;BME280;5278;42.656;23.374;2023-02-28T08:21:18;95226.25;;;15.22;73.78
10462;BME280;5278;42.656;23.374;2023-02-28T08:23:46;95204.50;;;14.64;76.54
10462;BME280;5278;42.656;23.374;2023-02-28T08:26:15;95231.44;;;14.14;79.92
10462;BME280;5278;42.656;23.374;2023-02-28T08:28:43;95214.41;;;13.60;82.14
10462;BME280;5278;42.656;23.374;2023-02-28T08:31:11;95233.53;;;13.38;83.53
10462;BME280;5278;42.656;23.374;2023-02-28T08:33:39;95213.69;;;13.06;84.88
10462;BME280;5278;42.656;23.374;2023-02-28T08:36:06;95234.38;;;13.07;86.21
10462;BME280;5278;42.656;23.374;2023-02-28T08:38:35;95237.88;;;13.22;86.25
10462;BME280;5278;42.656;23.374;2023-02-28T08:41:04;95233.84;;;13.20;85.26
10462;BME280;5278;42.656;23.374;2023-02-28T08:43:33;95236.00;;;13.31;85.65
10462;BME280;5278;42.656;23.374;2023-02-28T08:46:00;95234.22;;;13.31;85.60
10462;BME280;5278;42.656;23.374;2023-02-28T08:48:28;95222.47;;;13.50;85.62
10462;BME280;5278;42.656;23.374;2023-02-28T08:50:56;95234.66;;;13.58;83.93
10462;BME280;5278;42.656;23.374;2023-02-28T08:53:22;95147.28;;;12.93;84.72
10462;BME280;5278;42.656;23.374;2023-02-28T08:56:03;95232.19;;;13.42;84.85
10462;BME280;5278;42.656;23.374;2023-02-28T08:58:31;95237.16;;;13.51;84.87
10462;BME280;5278;42.656;23.374;2023-02-28T09:00:59;95224.59;;;13.69;84.35
10462;BME280;5278;42.656;23.374;2023-02-28T09:03:27;95250.19;;;13.89;83.39
10462;BME280;5278;42.656;23.374;2023-02-28T09:05:58;95221.50;;;13.80;82.00
10462;BME280;5278;42.656;23.374;2023-02-28T09:08:27;95243.38;;;13.65;82.79
10462;BME280;5278;42.656;23.374;2023-02-28T09:10:58;95233.09;;;13.49;84.31
10462;BME280;5278;42.656;23.374;2023-02-28T09:13:27;95216.34;;;13.43;84.75
10462;BME280;5278;42.656;23.374;2023-02-28T09:15:56;95227.97;;;13.55;83.88
10462;BME280;5278;42.656;23.374;2023-02-28T09:18:24;95221.59;;;13.72;83.27
10462;BME280;5278;42.656;23.374;2023-02-28T09:20:51;95219.34;;;14.28;81.45
10462;BME280;5278;42.656;23.374;2023-02-28T09:23:19;95222.28;;;14.69;79.47
10462;BME280;5278;42.656;23.374;2023-02-28T09:25:48;95236.78;;;15.29;75.16
10462;BME280;5278;42.656;23.374;2023-02-28T09:28:17;95224.28;;;15.80;72.25
10462;BME280;5278;42.656;23.374;2023-02-28T09:30:47;95234.84;;;16.21;70.97
10462;BME280;5278;42.656;23.374;2023-02-28T09:33:16;95192.47;;;16.65;67.61
10462;BME280;5278;42.656;23.374;2023-02-28T09:35:46;95233.31;;;16.87;66.61
10462;BME280;5278;42.656;23.374;2023-02-28T09:38:13;95222.81;;;16.33;67.96
10462;BME280;5278;42.656;23.374;2023-02-28T09:40:47;95225.09;;;15.74;70.00
10462;BME280;5278;42.656;23.374;2023-02-28T09:43:21;95229.66;;;15.01;73.66
10462;BME280;5278;42.656;23.374;2023-02-28T09:45:53;95236.53;;;14.67;75.70
10462;BME280;5278;42.656;23.374;2023-02-28T09:48:27;95217.28;;;14.53;77.10
10462;BME280;5278;42.656;23.374;2023-02-28T09:51:01;95230.44;;;14.45;77.19
10462;BME280;5278;42.656;23.374;2023-02-28T09:53:31;95216.56;;;14.15;78.48
10462;BME280;5278;42.656;23.374;2023-02-28T09:56:02;95225.22;;;14.15;78.97
10462;BME280;5278;42.656;23.374;2023-02-28T09:58:34;95229.88;;;14.20;77.83
10462;BME280;5278;42.656;23.374;2023-02-28T10:01:09;95217.38;;;14.01;79.26
10462;BME280;5278;42.656;23.374;2023-02-28T10:03:39;95231.34;;;14.08;78.41
10462;BME280;5278;42.656;23.374;2023-02-28T10:06:12;95206.84;;;14.38;76.79
10462;BME280;5278;42.656;23.374;2023-02-28T10:08:43;95211.34;;;15.23;73.43
10462;BME280;5278;42.656;23.374;2023-02-28T10:11:16;95219.88;;;15.31;71.80
10462;BME280;5278;42.656;23.374;2023-02-28T10:13:51;95210.03;;;15.12;73.61
10462;BME280;5278;42.656;23.374;2023-02-28T10:16:26;95215.34;;;15.46;71.72
10462;BME280;5278;42.656;23.374;2023-02-28T10:18:59;95209.84;;;15.90;69.73
10462;BME280;5278;42.656;23.374;2023-02-28T10:21:34;95208.50;;;15.67;68.86
10462;BME280;5278;42.656;23.374;2023-02-28T10:24:05;95203.41;;;15.59;69.81
10462;BME280;5278;42.656;23.374;2023-02-28T10:26:38;95213.00;;;15.52;70.74
10462;BME280;5278;42.656;23.374;2023-02-28T10:29:08;95197.09;;;15.81;70.50
10462;BME280;5278;42.656;23.374;2023-02-28T10:31:38;95196.72;;;16.18;67.33
10462;BME280;5278;42.656;23.374;2023-02-28T10:34:05;95193.66;;;16.15;67.02
10462;BME280;5278;42.656;23.374;2023-02-28T10:36:32;95181.25;;;17.10;63.51
10462;BME280;5278;42.656;23.374;2023-02-28T10:39:34;95177.16;;;18.06;58.99
10462;BME280;5278;42.656;23.374;2023-02-28T10:42:01;95153.44;;;18.20;57.64
10462;BME280;5278;42.656;23.374;2023-02-28T10:44:29;95164.84;;;18.58;56.56
10462;BME280;5278;42.656;23.374;2023-02-28T10:46:58;95162.44;;;18.57;55.40
10462;BME280;5278;42.656;23.374;2023-02-28T10:49:27;95133.47;;;18.50;54.89
10462;BME280;5278;42.656;23.374;2023-02-28T10:51:56;95149.81;;;18.65;54.79
10462;BME280;5278;42.656;23.374;2023-02-28T10:54:27;95146.19;;;18.98;52.78
10462;BME280;5278;42.656;23.374;2023-02-28T10:57:08;95141.16;;;18.89;52.28
10462;BME280;5278;42.656;23.374;2023-02-28T10:59:36;95138.56;;;18.45;54.51
10462;BME280;5278;42.656;23.374;2023-02-28T11:02:29;95147.72;;;17.72;56.90
10462;BME280;5278;42.656;23.374;2023-02-28T11:04:57;95148.69;;;16.72;60.10
10462;BME280;5278;42.656;23.374;2023-02-28T11:07:25;95132.31;;;16.09;62.52
10462;BME280;5278;42.656;23.374;2023-02-28T11:09:54;95138.91;;;15.92;64.54
10462;BME280;5278;42.656;23.374;2023-02-28T11:12:24;95100.94;;;15.47;66.64
10462;BME280;5278;42.656;23.374;2023-02-28T11:14:56;95128.19;;;15.53;67.67
10462;BME280;5278;42.656;23.374;2023-02-28T11:17:26;95133.63;;;15.51;67.66
10462;BME280;5278;42.656;23.374;2023-02-28T11:19:56;95115.88;;;15.19;68.25
10462;BME280;5278;42.656;23.374;2023-02-28T11:22:26;95116.81;;;14.90;70.13
10462;BME280;5278;42.656;23.374;2023-02-28T11:24:56;95107.47;;;15.30;68.58
10462;BME280;5278;42.656;23.374;2023-02-28T11:27:26;95125.44;;;15.39;69.49
10462;BME280;5278;42.656;23.374;2023-02-28T11:30:24;95124.78;;;15.31;68.63
10462;BME280;5278;42.656;23.374;2023-02-28T11:32:53;95131.03;;;14.81;70.81
10462;BME280;5278;42.656;23.374;2023-02-28T11:35:26;95133.53;;;14.68;71.58
10462;BME280;5278;42.656;23.374;2023-02-28T11:37:53;95134.06;;;14.42;73.51
10462;BME280;5278;42.656;23.374;2023-02-28T11:40:27;95140.50;;;14.39;74.68
10462;BME280;5278;42.656;23.374;2023-02-28T11:43:01;95125.16;;;14.36;75.13
10462;BME280;5278;42.656;23.374;2023-02-28T11:45:43;95116.47;;;14.50;74.69
10462;BME280;5278;42.656;23.374;2023-02-28T11:48:19;95116.78;;;14.62;74.56
10462;BME280;5278;42.656;23.374;2023-02-28T11:51:04;95122.84;;;14.84;73.23
10462;BME280;5278;42.656;23.374;2023-02-28T11:54:06;95118.69;;;14.96;72.56
10462;BME280;5278;42.656;23.374;2023-02-28T11:56:39;95125.41;;;15.05;70.55
10462;BME280;5278;42.656;23.374;2023-02-28T11:59:22;95103.88;;;14.82;71.28
10462;BME280;5278;42.656;23.374;2023-02-28T12:02:09;95105.75;;;14.88;71.92
10462;BME280;5278;42.656;23.374;2023-02-28T12:04:54;95118.75;;;15.02;71.50
10462;BME280;5278;42.656;23.374;2023-02-28T12:07:30;95126.94;;;14.93;71.93
10462;BME280;5278;42.656;23.374;2023-02-28T12:10:06;95104.69;;;14.61;73.21
10462;BME280;5278;42.656;23.374;2023-02-28T12:12:47;95117.72;;;14.54;73.27
10462;BME280;5278;42.656;23.374;2023-02-28T12:15:40;95112.25;;;14.49;73.57
10462;BME280;5278;42.656;23.374;2023-02-28T12:18:27;95127.91;;;14.35;73.86
10462;BME280;5278;42.656;23.374;2023-02-28T12:21:04;95102.41;;;14.51;74.26
10462;BME280;5278;42.656;23.374;2023-02-28T12:23:51;95100.72;;;14.44;74.12
10462;BME280;5278;42.656;23.374;2023-02-28T12:26:32;95103.88;;;14.60;73.37
10462;BME280;5278;42.656;23.374;2023-02-28T12:29:09;95105.09;;;14.79;72.77
10462;BME280;5278;42.656;23.374;2023-02-28T12:31:42;95102.31;;;14.66;72.40
10462;BME280;5278;42.656;23.374;2023-02-28T12:34:15;95074.88;;;14.55;72.09
10462;BME280;5278;42.656;23.374;2023-02-28T12:36:51;95107.22;;;14.97;70.74
10462;BME280;5278;42.656;23.374;2023-02-28T12:39:23;95116.72;;;14.98;70.49
10462;BME280;5278;42.656;23.374;2023-02-28T12:41:54;95103.13;;;14.88;70.95
10462;BME280;5278;42.656;23.374;2023-02-28T12:44:30;95104.28;;;14.79;70.71
10462;BME280;5278;42.656;23.374;2023-02-28T12:47:01;95101.03;;;14.77;70.34
10462;BME280;5278;42.656;23.374;2023-02-28T12:49:33;95101.03;;;14.77;70.95
10462;BME280;5278;42.656;23.374;2023-02-28T12:52:03;95107.44;;;14.74;70.65
10462;BME280;5278;42.656;23.374;2023-02-28T12:54:36;95108.69;;;14.78;70.42
10462;BME280;5278;42.656;23.374;2023-02-28T12:57:09;95097.16;;;14.73;70.87
10462;BME280;5278;42.656;23.374;2023-02-28T12:59:42;95091.75;;;14.74;70.45
10462;BME280;5278;42.656;23.374;2023-02-28T13:05:54;95110.66;;;14.34;72.84
10462;BME280;5278;42.656;23.374;2023-02-28T13:08:58;95100.25;;;14.40;72.97
10462;BME280;5278;42.656;23.374;2023-02-28T13:11:28;95100.66;;;14.37;73.20
10462;BME280;5278;42.656;23.374;2023-02-28T13:14:01;95102.88;;;14.40;72.42
10462;BME280;5278;42.656;23.374;2023-02-28T13:16:51;95070.78;;;14.32;72.87
10462;BME280;5278;42.656;23.374;2023-02-28T13:19:22;95091.69;;;14.46;72.58
10462;BME280;5278;42.656;23.374;2023-02-28T13:21:50;95092.31;;;14.48;71.97
10462;BME280;5278;42.656;23.374;2023-02-28T13:24:44;95084.41;;;14.42;72.03
10462;BME280;5278;42.656;23.374;2023-02-28T13:27:34;95085.03;;;14.44;71.44
10462;BME280;5278;42.656;23.374;2023-02-28T13:33:23;95085.03;;;14.44;71.01